createdAt,value
2024-04-06T00:00:40.799Z,2.20
2024-04-06T00:03:28.594Z,2.00
2024-04-06T00:05:56.511Z,2.00
2024-04-06T00:08:24.440Z,2.00
2024-04-06T00:10:52.241Z,2.20
2024-04-06T00:13:20.203Z,2.00
2024-04-06T00:15:48.200Z,2.30
2024-04-06T00:18:17.039Z,1.90
2024-04-06T00:20:44.843Z,2.10
2024-04-06T00:23:12.724Z,1.90
2024-04-06T00:25:40.578Z,2.10
2024-04-06T00:28:08.479Z,2.20
2024-04-06T00:30:36.582Z,2.20
2024-04-06T00:33:04.772Z,1.80
2024-04-06T00:35:32.669Z,2.30
2024-04-06T00:38:00.622Z,2.20
2024-04-06T00:40:28.566Z,1.70
2024-04-06T00:42:56.523Z,2.00
2024-04-06T00:45:24.457Z,1.80
2024-04-06T00:47:52.306Z,2.10
2024-04-06T00:50:21.099Z,2.20
2024-04-06T00:52:49.014Z,1.80
2024-04-06T00:55:17.981Z,1.90
2024-04-06T00:57:45.831Z,2.10
2024-04-06T01:00:13.919Z,1.80
2024-04-06T01:02:42.104Z,1.90
2024-04-06T01:05:09.992Z,2.10
2024-04-06T01:07:40.423Z,1.70
2024-04-06T01:10:08.285Z,1.80
2024-04-06T01:12:36.468Z,1.90
2024-04-06T01:15:05.300Z,1.90
2024-04-06T01:17:33.232Z,2.00
2024-04-06T01:20:01.149Z,2.00
2024-04-06T01:22:29.212Z,1.90
2024-04-06T01:24:57.765Z,1.90
2024-04-06T01:27:25.810Z,2.30
2024-04-06T01:29:53.683Z,1.70
2024-04-06T01:32:21.597Z,1.80
2024-04-06T01:34:49.481Z,2.00
2024-04-06T01:37:17.809Z,1.70
2024-04-06T01:39:45.735Z,2.00
2024-04-06T01:42:13.583Z,2.00
2024-04-06T01:44:41.501Z,2.00
2024-04-06T01:47:09.413Z,1.90
2024-04-06T01:49:37.484Z,1.90
2024-04-06T01:52:05.359Z,2.00
2024-04-06T01:54:33.273Z,2.00
2024-04-06T01:57:01.681Z,2.20
2024-04-06T01:59:30.697Z,2.10
2024-04-06T02:01:58.634Z,2.20
2024-04-06T02:04:26.444Z,2.20
2024-04-06T02:06:54.299Z,2.30
2024-04-06T02:09:22.182Z,2.40
2024-04-06T02:11:51.210Z,2.20
2024-04-06T02:14:19.074Z,2.10
2024-04-06T02:16:46.940Z,2.50
2024-04-06T02:19:15.572Z,2.40
2024-04-06T02:21:43.570Z,2.50
2024-04-06T02:24:11.424Z,2.10
2024-04-06T02:26:39.229Z,2.50
2024-04-06T02:29:07.116Z,2.40
2024-04-06T02:31:34.964Z,2.00
2024-04-06T02:34:02.855Z,2.30
2024-04-06T02:36:30.896Z,2.10
2024-04-06T02:38:58.743Z,2.20
2024-04-06T02:41:26.591Z,2.00
2024-04-06T02:43:54.399Z,2.00
2024-04-06T02:46:22.336Z,2.20
2024-04-06T02:48:50.553Z,2.00
2024-04-06T02:51:18.344Z,2.10
2024-04-06T02:53:46.857Z,2.20
2024-04-06T02:56:14.741Z,2.30
2024-04-06T02:58:43.579Z,2.30
2024-04-06T03:01:11.503Z,2.00
2024-04-06T03:03:39.387Z,1.90
2024-04-06T03:06:07.428Z,2.20
2024-04-06T03:08:35.392Z,1.90
2024-04-06T03:11:03.875Z,1.80
2024-04-06T03:13:31.705Z,2.10
2024-04-06T03:15:59.547Z,2.20
2024-04-06T03:18:27.371Z,2.10
2024-04-06T03:20:55.261Z,2.10
2024-04-06T03:23:23.092Z,1.80
2024-04-06T03:25:50.875Z,2.30
2024-04-06T03:28:20.478Z,2.10
2024-04-06T03:30:48.335Z,2.00
2024-04-06T03:33:16.148Z,2.10
2024-04-06T03:35:43.994Z,2.10
2024-04-06T03:38:11.861Z,2.20
2024-04-06T03:40:39.672Z,2.10
2024-04-06T03:43:08.077Z,2.10
2024-04-06T03:45:37.122Z,2.10
2024-04-06T03:48:05.242Z,2.20
2024-04-06T03:50:33.214Z,2.00
2024-04-06T03:53:01.405Z,2.50
2024-04-06T03:55:29.312Z,2.10
2024-04-06T03:57:57.246Z,2.10
2024-04-06T04:00:25.200Z,2.00
2024-04-06T04:02:53.125Z,2.10
2024-04-06T04:05:21.536Z,2.00
2024-04-06T04:07:49.351Z,1.80
2024-04-06T04:10:17.365Z,2.30
2024-04-06T04:12:45.314Z,2.00
2024-04-06T04:15:13.171Z,2.10
2024-04-06T04:17:41.091Z,1.90
2024-04-06T04:20:09.601Z,2.00
2024-04-06T04:22:37.426Z,2.10
2024-04-06T04:25:05.487Z,1.90
2024-04-06T04:27:33.730Z,1.70
2024-04-06T04:30:01.555Z,2.10
2024-04-06T04:32:29.566Z,1.70
2024-04-06T04:34:57.547Z,2.00
2024-04-06T04:37:25.454Z,1.90
2024-04-06T04:39:53.735Z,2.20
2024-04-06T04:42:21.605Z,1.90
2024-04-06T04:44:53.515Z,2.20
2024-04-06T04:47:23.495Z,2.20
2024-04-06T04:49:51.340Z,2.00
2024-04-06T04:52:19.191Z,2.10
2024-04-06T04:54:46.999Z,2.00
2024-04-06T04:57:14.857Z,1.90
2024-04-06T04:59:42.730Z,2.00
2024-04-06T05:02:10.641Z,1.90
2024-04-06T05:04:38.535Z,2.10
2024-04-06T05:07:06.401Z,1.70
2024-04-06T05:09:34.225Z,2.20
2024-04-06T05:12:02.211Z,1.90
2024-04-06T05:14:30.522Z,2.00
2024-04-06T05:16:58.412Z,1.90
2024-04-06T05:19:26.483Z,2.40
2024-04-06T05:21:54.379Z,1.90
2024-04-06T05:24:22.250Z,2.10
2024-04-06T05:26:50.625Z,2.10
2024-04-06T05:29:19.762Z,2.00
2024-04-06T05:31:47.922Z,2.50
2024-04-06T05:34:16.318Z,3.00
2024-04-06T05:36:44.310Z,3.30
2024-04-06T05:39:12.145Z,2.80
2024-04-06T05:41:40.093Z,3.30
2024-04-06T05:44:08.071Z,2.50
2024-04-06T05:46:35.942Z,2.50
2024-04-06T05:49:06.760Z,2.30
2024-04-06T05:54:02.686Z,2.10
2024-04-06T05:56:30.939Z,2.00
2024-04-06T05:58:58.955Z,2.10
2024-04-06T06:01:26.768Z,2.10
2024-04-06T06:03:54.633Z,2.00
2024-04-06T06:06:22.636Z,2.00
2024-04-06T06:08:50.565Z,2.00
2024-04-06T06:11:18.472Z,2.50
2024-04-06T06:13:46.286Z,2.40
2024-04-06T06:16:14.098Z,2.30
2024-04-06T06:18:41.909Z,2.40
2024-04-06T06:21:09.796Z,2.30
2024-04-06T06:23:38.549Z,2.20
2024-04-06T06:26:06.487Z,2.10
2024-04-06T06:28:34.526Z,2.20
2024-04-06T06:31:04.510Z,2.10
2024-04-06T06:33:32.390Z,2.20
2024-04-06T06:40:58.719Z,2.30
2024-04-06T06:43:26.572Z,2.20
2024-04-06T06:45:54.473Z,2.40
2024-04-06T06:48:22.313Z,2.40
2024-04-06T06:50:50.119Z,1.80
2024-04-06T06:53:17.996Z,1.80
2024-04-06T06:55:45.858Z,1.70
2024-04-06T06:58:13.656Z,1.80
2024-04-06T07:00:47.040Z,1.90
2024-04-06T07:03:15.073Z,1.80
2024-04-06T07:05:43.039Z,2.00
2024-04-06T07:08:10.831Z,1.90
2024-04-06T07:10:40.446Z,2.30
2024-04-06T07:13:08.376Z,1.80
2024-04-06T07:15:36.249Z,2.10
2024-04-06T07:18:04.414Z,1.90
2024-04-06T07:20:32.293Z,2.10
2024-04-06T07:23:00.104Z,2.20
2024-04-06T07:25:28.016Z,1.90
2024-04-06T07:27:55.845Z,2.00
2024-04-06T07:30:23.861Z,1.80
2024-04-06T07:32:53.576Z,2.20
2024-04-06T07:35:22.800Z,2.10
2024-04-06T07:37:50.708Z,2.20
2024-04-06T07:40:18.518Z,2.40
2024-04-06T07:42:46.368Z,2.60
2024-04-06T07:45:14.263Z,2.80
2024-04-06T07:47:42.041Z,3.20
2024-04-06T07:50:10.035Z,3.20
2024-04-06T07:52:37.973Z,2.90
2024-04-06T07:55:05.998Z,3.20
2024-04-06T07:57:33.999Z,2.70
2024-04-06T08:00:02.502Z,3.20
2024-04-06T08:02:30.573Z,2.80
2024-04-06T08:04:58.445Z,3.60
2024-04-06T08:07:26.856Z,3.30
2024-04-06T08:09:58.848Z,3.10
2024-04-06T08:12:28.052Z,2.90
2024-04-06T08:14:55.921Z,4.00
2024-04-06T08:17:23.756Z,3.80
2024-04-06T08:19:51.616Z,3.30
2024-04-06T08:22:19.431Z,3.20
2024-04-06T08:24:47.277Z,3.60
2024-04-06T08:27:15.113Z,3.30
2024-04-06T08:29:43.260Z,3.30
2024-04-06T08:32:11.109Z,3.40
2024-04-06T08:34:38.934Z,3.50
2024-04-06T08:37:06.845Z,3.40
2024-04-06T08:39:34.679Z,3.30
2024-04-06T08:42:03.354Z,3.00
2024-04-06T08:44:44.224Z,3.70
2024-04-06T08:47:22.015Z,3.40
2024-04-06T08:49:50.803Z,3.60
2024-04-06T08:52:18.650Z,3.90
2024-04-06T08:54:46.455Z,3.80
2024-04-06T08:57:14.478Z,3.90
2024-04-06T08:59:42.591Z,3.60
2024-04-06T09:02:10.433Z,3.70
2024-04-06T09:04:38.626Z,3.40
2024-04-06T09:07:07.355Z,3.70
2024-04-06T09:09:35.938Z,3.50
2024-04-06T09:12:04.483Z,3.60
2024-04-06T09:14:33.036Z,3.80
2024-04-06T09:17:00.865Z,3.00
2024-04-06T09:19:28.767Z,3.00
2024-04-06T09:21:57.457Z,3.30
2024-04-06T09:24:27.988Z,3.40
2024-04-06T09:27:17.901Z,3.70
2024-04-06T09:29:49.037Z,3.10
2024-04-06T09:32:21.853Z,3.30
2024-04-06T09:34:52.585Z,3.30
2024-04-06T09:37:25.770Z,3.80
2024-04-06T09:39:55.048Z,3.50
2024-04-06T09:42:23.986Z,4.00
2024-04-06T09:44:54.740Z,3.70
2024-04-06T09:47:24.633Z,3.20
2024-04-06T09:49:52.680Z,3.70
2024-04-06T09:52:21.848Z,3.40
2024-04-06T09:54:49.886Z,3.10
2024-04-06T09:57:22.487Z,3.70
2024-04-06T10:00:01.218Z,3.70
2024-04-06T10:02:34.054Z,3.70
2024-04-06T10:05:07.379Z,4.30
2024-04-06T10:07:35.802Z,4.20
2024-04-06T10:10:08.157Z,4.80
2024-04-06T10:12:41.767Z,5.00
2024-04-06T10:15:19.687Z,4.90
2024-04-06T10:17:54.655Z,4.80
2024-04-06T10:20:24.012Z,5.30
2024-04-06T10:22:53.369Z,5.20
2024-04-06T10:25:32.534Z,4.90
2024-04-06T10:28:05.440Z,4.70
2024-04-06T10:30:34.699Z,5.00
2024-04-06T10:33:02.589Z,4.60
2024-04-06T10:35:30.610Z,5.20
2024-04-06T10:37:58.477Z,5.00
2024-04-06T10:40:29.566Z,4.20
2024-04-06T10:42:57.382Z,4.80
2024-04-06T10:45:25.277Z,3.80
2024-04-06T10:47:53.139Z,4.60
2024-04-06T10:50:21.063Z,4.30
2024-04-06T10:52:49.105Z,4.70
2024-04-06T10:55:20.480Z,4.70
2024-04-06T10:57:48.620Z,4.90
2024-04-06T11:00:18.955Z,4.60
2024-04-06T11:02:48.065Z,5.20
2024-04-06T11:05:15.965Z,4.40
2024-04-06T11:07:43.863Z,4.70
2024-04-06T11:10:12.032Z,4.80
2024-04-06T11:12:40.805Z,4.40
2024-04-06T11:15:10.501Z,4.60
2024-04-06T11:17:38.516Z,5.20
2024-04-06T11:20:08.102Z,5.00
2024-04-06T11:22:39.565Z,4.50
2024-04-06T11:25:08.508Z,5.00
2024-04-06T11:27:36.358Z,5.20
2024-04-06T11:30:05.154Z,4.60
2024-04-06T11:32:33.110Z,5.10
2024-04-06T11:35:00.894Z,5.60
2024-04-06T11:37:28.895Z,6.00
2024-04-06T11:39:56.775Z,4.90
2024-04-06T11:42:25.007Z,5.40
2024-04-06T11:44:52.991Z,5.10
2024-04-06T11:47:20.922Z,5.10
2024-04-06T11:49:51.533Z,4.90
2024-04-06T11:54:47.084Z,4.80
2024-04-06T11:57:14.926Z,4.80
2024-04-06T11:59:42.766Z,5.40
2024-04-06T12:02:10.583Z,5.00
2024-04-06T12:04:38.766Z,4.80
2024-04-06T12:07:06.662Z,4.90
2024-04-06T12:09:34.559Z,5.00
2024-04-06T12:12:02.716Z,5.20
2024-04-06T12:17:22.107Z,5.10
2024-04-06T12:19:49.942Z,4.90
2024-04-06T12:22:17.750Z,5.00
2024-04-06T12:24:45.586Z,4.80
2024-04-06T12:27:15.801Z,5.40
2024-04-06T12:29:49.380Z,5.10
2024-04-06T12:32:17.170Z,6.00
2024-04-06T12:34:45.058Z,5.60
2024-04-06T12:37:14.861Z,5.20
2024-04-06T12:39:43.685Z,5.70
2024-04-06T12:42:11.486Z,5.70
2024-04-06T12:44:39.324Z,5.60
2024-04-06T12:47:07.321Z,4.80
2024-04-06T12:49:35.179Z,5.60
2024-04-06T12:52:03.380Z,5.50
2024-04-06T12:54:33.131Z,5.00
2024-04-06T12:57:19.251Z,5.10
2024-04-06T12:59:47.145Z,5.30
2024-04-06T13:02:15.056Z,5.20
2024-04-06T13:04:42.901Z,6.20
2024-04-06T13:07:10.926Z,5.50
2024-04-06T13:09:38.749Z,5.80
2024-04-06T13:12:06.682Z,5.80
2024-04-06T13:14:34.536Z,6.40
2024-04-06T13:17:02.520Z,5.50
2024-04-06T13:19:30.429Z,6.10
2024-04-06T13:21:58.318Z,5.20
2024-04-06T13:24:26.107Z,5.80
2024-04-06T13:26:53.967Z,5.80
2024-04-06T13:29:21.828Z,5.60
2024-04-06T13:31:52.403Z,5.80
2024-04-06T13:34:21.875Z,5.30
2024-04-06T13:36:49.756Z,5.90
2024-04-06T13:39:17.661Z,5.70
2024-04-06T13:41:45.495Z,6.70
2024-04-06T13:44:13.290Z,5.70
2024-04-06T13:46:41.194Z,6.00
2024-04-06T13:49:12.006Z,6.10
2024-04-06T13:51:40.509Z,6.40
2024-04-06T13:54:08.344Z,6.40
2024-04-06T13:56:36.237Z,7.40
2024-04-06T13:59:04.521Z,6.70
2024-04-06T14:01:32.558Z,6.40
2024-04-06T14:04:00.663Z,7.80
2024-04-06T14:06:28.554Z,7.00
2024-04-06T14:08:56.736Z,7.00
2024-04-06T14:11:31.752Z,7.70
2024-04-06T14:14:03.750Z,7.70
2024-04-06T14:16:31.974Z,8.20
2024-04-06T14:18:59.865Z,7.90
2024-04-06T14:21:27.981Z,8.20
2024-04-06T14:23:55.852Z,7.00
2024-04-06T14:26:23.700Z,7.00
2024-04-06T14:28:51.598Z,7.00
2024-04-06T14:31:19.554Z,6.80
2024-04-06T14:33:47.484Z,6.10
2024-04-06T14:36:15.349Z,6.60
2024-04-06T14:38:43.266Z,6.10
2024-04-06T14:41:11.070Z,5.90
2024-04-06T14:43:39.501Z,5.10
2024-04-06T14:46:07.442Z,6.10
2024-04-06T14:48:36.426Z,5.70
2024-04-06T14:51:04.620Z,5.20
2024-04-06T14:53:32.484Z,6.00
2024-04-06T14:56:00.553Z,5.80
2024-04-06T14:58:28.387Z,5.80
2024-04-06T15:00:56.260Z,5.40
2024-04-06T15:03:24.123Z,6.00
2024-04-06T15:05:53.246Z,5.50
2024-04-06T15:08:21.121Z,5.60
2024-04-06T15:10:49.577Z,5.70
2024-04-06T15:13:19.487Z,5.60
2024-04-06T15:15:47.380Z,6.60
2024-04-06T15:18:15.328Z,6.00
2024-04-06T15:20:43.256Z,5.80
2024-04-06T15:23:13.570Z,6.30
2024-04-06T15:25:41.433Z,6.50
2024-04-06T15:28:09.505Z,6.00
2024-04-06T15:30:37.463Z,5.90
2024-04-06T15:33:05.328Z,5.40
2024-04-06T15:35:50.475Z,5.50
2024-04-06T15:38:18.399Z,5.70
2024-04-06T15:40:46.354Z,6.10
2024-04-06T15:43:17.737Z,5.50
2024-04-06T15:45:46.763Z,5.80
2024-04-06T15:48:16.438Z,5.10
2024-04-06T15:50:44.320Z,5.70
2024-04-06T15:53:12.513Z,5.50
2024-04-06T15:55:40.362Z,5.60
2024-04-06T15:58:08.278Z,5.20
2024-04-06T16:00:36.362Z,5.10
2024-04-06T16:03:04.838Z,5.40
2024-04-06T16:05:32.752Z,5.50
2024-04-06T16:08:00.621Z,5.30
2024-04-06T16:10:28.533Z,5.80
2024-04-06T16:12:56.420Z,5.90
2024-04-06T16:15:24.316Z,5.30
2024-04-06T16:17:52.288Z,5.10
2024-04-06T16:20:20.269Z,5.80
2024-04-06T16:22:48.118Z,6.10
2024-04-06T16:25:17.485Z,6.00
2024-04-06T16:27:46.071Z,6.00
2024-04-06T16:30:16.600Z,5.30
2024-04-06T16:32:45.722Z,5.40
2024-04-06T16:35:13.644Z,5.70
2024-04-06T16:37:41.464Z,6.00
2024-04-06T16:40:09.552Z,5.00
2024-04-06T16:42:37.385Z,5.50
2024-04-06T16:45:05.769Z,5.30
2024-04-06T16:47:33.734Z,4.30
2024-04-06T16:50:01.538Z,6.10
2024-04-06T16:52:29.514Z,5.80
2024-04-06T16:54:57.367Z,6.30
2024-04-06T16:57:25.239Z,6.20
2024-04-06T16:59:53.060Z,6.50
2024-04-06T17:02:20.975Z,5.80
2024-04-06T17:04:48.803Z,6.30
2024-04-06T17:07:16.655Z,6.50
2024-04-06T17:09:44.574Z,6.20
2024-04-06T17:12:12.423Z,5.70
2024-04-06T17:14:40.331Z,5.60
2024-04-06T17:17:08.267Z,6.20
2024-04-06T17:19:36.161Z,5.80
2024-04-06T17:22:04.227Z,5.40
2024-04-06T17:24:32.100Z,5.20
2024-04-06T17:26:59.966Z,5.20
2024-04-06T17:29:27.867Z,5.30
2024-04-06T17:31:55.836Z,6.30
2024-04-06T17:34:23.799Z,5.70
2024-04-06T17:36:51.620Z,5.70
2024-04-06T17:39:19.451Z,5.70
2024-04-06T17:41:47.305Z,6.20
2024-04-06T17:44:15.160Z,5.90
2024-04-06T17:46:43.669Z,6.30
2024-04-06T17:49:12.738Z,5.80
2024-04-06T17:51:40.889Z,5.90
2024-04-06T17:54:08.964Z,6.00
2024-04-06T17:56:36.783Z,5.50
2024-04-06T17:59:05.040Z,5.50
2024-04-06T18:01:33.688Z,5.90
2024-04-06T18:04:01.631Z,5.90
2024-04-06T18:06:30.659Z,6.10
2024-04-06T18:08:59.356Z,5.40
2024-04-06T18:11:27.460Z,6.10
2024-04-06T18:13:55.314Z,7.10
2024-04-06T18:16:23.462Z,5.90
2024-04-06T18:18:52.058Z,5.90
2024-04-06T18:21:21.166Z,6.00
2024-04-06T18:23:49.158Z,5.60
2024-04-06T18:26:16.962Z,5.40
2024-04-06T18:28:44.724Z,6.00
2024-04-06T18:31:12.742Z,5.90
2024-04-06T18:33:42.272Z,5.90
2024-04-06T18:36:10.079Z,6.20
2024-04-06T18:38:37.978Z,5.80
2024-04-06T18:41:05.850Z,4.90
2024-04-06T18:43:33.812Z,5.10
2024-04-06T18:46:01.717Z,5.20
2024-04-06T18:48:29.562Z,5.10
2024-04-06T18:50:57.671Z,5.60
2024-04-06T18:53:25.625Z,5.20
2024-04-06T18:55:53.454Z,6.40
2024-04-06T18:58:21.420Z,6.00
2024-04-06T19:00:49.241Z,5.80
2024-04-06T19:03:17.671Z,5.60
2024-04-06T19:05:45.502Z,5.70
2024-04-06T19:08:13.402Z,4.70
2024-04-06T19:10:41.409Z,4.70
2024-04-06T19:13:09.438Z,4.60
2024-04-06T19:15:37.216Z,3.90
2024-04-06T19:18:05.367Z,3.20
2024-04-06T19:20:33.859Z,3.20
2024-04-06T19:23:01.789Z,4.10
2024-04-06T19:25:29.681Z,3.10
2024-04-06T19:27:57.564Z,3.20
2024-04-06T19:30:25.414Z,3.40
2024-04-06T19:32:54.413Z,3.40
2024-04-06T19:35:22.240Z,3.30
2024-04-06T19:37:50.184Z,3.80
2024-04-06T19:40:18.062Z,3.80
2024-04-06T19:42:45.888Z,4.50
2024-04-06T19:45:13.679Z,4.50
2024-04-06T19:47:41.574Z,3.90
2024-04-06T19:50:09.512Z,4.10
2024-04-06T19:52:37.434Z,4.10
2024-04-06T19:55:11.139Z,3.90
2024-04-06T19:57:39.770Z,3.90
2024-04-06T20:00:07.981Z,4.30
2024-04-06T20:02:36.055Z,4.90
2024-04-06T20:05:04.435Z,4.90
2024-04-06T20:07:32.768Z,4.20
2024-04-06T20:10:01.054Z,4.30
2024-04-06T20:12:28.902Z,4.30
2024-04-06T20:14:56.692Z,4.20
2024-04-06T20:17:24.764Z,3.80
2024-04-06T20:19:53.148Z,3.90
2024-04-06T20:22:39.584Z,3.70
2024-04-06T20:25:26.478Z,3.60
2024-04-06T20:27:54.702Z,3.80
2024-04-06T20:30:24.277Z,4.10
2024-04-06T20:32:52.135Z,3.80
2024-04-06T20:35:20.184Z,4.20
2024-04-06T20:37:48.006Z,4.70
2024-04-06T20:40:15.961Z,4.00
2024-04-06T20:42:44.009Z,4.70
2024-04-06T20:45:12.236Z,4.10
2024-04-06T20:47:40.070Z,4.20
2024-04-06T20:50:07.989Z,4.00
2024-04-06T20:52:35.886Z,4.10
2024-04-06T20:55:04.134Z,4.70
2024-04-06T20:57:32.113Z,3.40
2024-04-06T20:59:59.968Z,3.50
2024-04-06T21:02:27.886Z,3.30
2024-04-06T21:04:55.760Z,3.30
2024-04-06T21:07:23.895Z,3.20
2024-04-06T21:09:51.792Z,2.90
2024-04-06T21:12:20.121Z,3.20
2024-04-06T21:14:48.035Z,3.10
2024-04-06T21:17:15.896Z,3.70
2024-04-06T21:19:43.726Z,4.80
2024-04-06T21:22:12.193Z,5.00
2024-04-06T21:24:40.067Z,5.00
2024-04-06T21:27:08.058Z,5.00
2024-04-06T21:29:35.905Z,4.80
2024-04-06T21:32:04.166Z,4.70
2024-04-06T21:34:31.976Z,4.70
2024-04-06T21:37:00.041Z,3.40
2024-04-06T21:39:27.907Z,4.00
2024-04-06T21:41:55.809Z,3.90
2024-04-06T21:44:23.838Z,4.40
2024-04-06T21:46:51.757Z,4.30
2024-04-06T21:49:19.620Z,3.90
2024-04-06T21:51:47.541Z,3.60
2024-04-06T21:54:15.601Z,3.80
2024-04-06T21:56:44.129Z,3.50
2024-04-06T21:59:12.018Z,3.50
2024-04-06T22:01:39.917Z,3.30
2024-04-06T22:04:08.102Z,3.40
2024-04-06T22:06:36.766Z,3.80
2024-04-06T22:09:07.493Z,4.00
2024-04-06T22:14:03.475Z,3.60
2024-04-06T22:16:31.322Z,4.60
2024-04-06T22:18:59.230Z,3.60
2024-04-06T22:21:27.178Z,3.60
2024-04-06T22:23:55.126Z,3.80
2024-04-06T22:26:23.186Z,3.40
2024-04-06T22:28:51.190Z,4.00
2024-04-06T22:31:19.153Z,3.80
2024-04-06T22:33:47.192Z,4.10
2024-04-06T22:36:15.334Z,4.60
2024-04-06T22:38:43.354Z,3.90
2024-04-06T22:41:11.313Z,3.60
2024-04-06T22:43:39.183Z,4.10
2024-04-06T22:46:07.093Z,4.70
2024-04-06T22:48:34.999Z,3.00
2024-04-06T22:51:03.286Z,3.30
2024-04-06T22:53:31.144Z,2.60
2024-04-06T22:55:59.029Z,3.20
2024-04-06T22:58:26.997Z,3.00
2024-04-06T23:00:54.931Z,3.80
2024-04-06T23:03:22.879Z,3.40
2024-04-06T23:05:50.745Z,3.80
2024-04-06T23:08:18.594Z,3.60
2024-04-06T23:10:46.616Z,3.40
2024-04-06T23:13:14.998Z,3.10
2024-04-06T23:15:43.111Z,3.00
2024-04-06T23:18:10.997Z,3.30
2024-04-06T23:20:38.873Z,3.10
2024-04-06T23:23:06.882Z,2.80
2024-04-06T23:25:35.190Z,2.90
2024-04-06T23:28:03.440Z,3.10
2024-04-06T23:30:31.447Z,2.70
2024-04-06T23:32:59.349Z,2.50
2024-04-06T23:35:27.313Z,2.40
2024-04-06T23:37:55.169Z,2.70
2024-04-06T23:40:24.553Z,2.70
2024-04-06T23:42:52.425Z,2.70
2024-04-06T23:45:20.412Z,2.80
2024-04-06T23:47:48.290Z,2.30
2024-04-06T23:50:16.218Z,2.60
2024-04-06T23:52:44.383Z,2.70
2024-04-06T23:55:12.504Z,2.40
2024-04-06T23:57:40.364Z,2.40
